createdAt,value
2019-02-23T00:02:06.251Z,99.90
2019-02-23T00:04:40.148Z,99.90
2019-02-23T00:07:13.852Z,99.90
2019-02-23T00:09:49.525Z,99.90
2019-02-23T00:12:25.254Z,99.90
2019-02-23T00:17:50.880Z,99.90
2019-02-23T00:20:27.464Z,99.90
2019-02-23T00:25:57.627Z,99.90
2019-02-23T00:28:41.545Z,99.90
2019-02-23T00:31:19.939Z,99.90
2019-02-23T00:33:50.767Z,99.90
2019-02-23T00:39:51.640Z,99.90
2019-02-23T00:42:28.161Z,99.90
2019-02-23T00:44:58.883Z,99.90
2019-02-23T00:47:35.730Z,99.90
2019-02-23T00:50:11.569Z,99.90
2019-02-23T00:52:50.763Z,99.90
2019-02-23T00:55:20.840Z,99.90
2019-02-23T00:58:04.255Z,99.90
2019-02-23T01:00:38.560Z,99.90
2019-02-23T01:03:22.650Z,99.90
2019-02-23T01:06:13.737Z,99.90
2019-02-23T01:08:46.691Z,99.90
2019-02-23T01:11:24.040Z,99.90
2019-02-23T01:17:41.985Z,99.90
2019-02-23T01:19:28.939Z,99.90
2019-02-23T01:21:59.097Z,99.90
2019-02-23T01:24:29.688Z,99.90
2019-02-23T01:26:59.775Z,99.90
2019-02-23T01:29:30.950Z,99.90
2019-02-23T01:32:00.999Z,99.90
2019-02-23T01:34:38.594Z,99.90
2019-02-23T01:37:12.163Z,99.90
2019-02-23T01:39:51.969Z,99.90
2019-02-23T01:42:36.226Z,99.90
2019-02-23T01:45:00.914Z,99.90
2019-02-23T01:47:33.791Z,99.90
2019-02-23T01:50:14.665Z,99.90
2019-02-23T01:52:47.459Z,99.90
2019-02-23T01:55:27.788Z,99.90
2019-02-23T01:57:59.795Z,99.90
2019-02-23T02:00:30.693Z,99.90
2019-02-23T02:03:01.538Z,99.90
2019-02-23T02:05:38.579Z,99.90
2019-02-23T02:08:16.854Z,99.90
2019-02-23T02:10:48.265Z,99.90
2019-02-23T02:13:21.572Z,99.90
2019-02-23T02:15:57.221Z,99.90
2019-02-23T02:18:29.339Z,99.90
2019-02-23T02:24:18.053Z,99.90
2019-02-23T02:26:49.610Z,99.90
2019-02-23T02:29:26.134Z,99.90
2019-02-23T02:31:57.627Z,99.90
2019-02-23T02:34:28.986Z,99.90
2019-02-23T02:42:56.911Z,99.90
2019-02-23T02:45:27.342Z,99.90
2019-02-23T02:47:58.181Z,99.90
2019-02-23T02:50:28.425Z,99.90
2019-02-23T02:52:58.639Z,99.90
2019-02-23T02:55:28.568Z,99.90
2019-02-23T02:57:59.459Z,99.90
2019-02-23T03:00:51.027Z,99.90
2019-02-23T03:03:24.648Z,99.90
2019-02-23T03:06:41.751Z,99.90
2019-02-23T03:09:21.126Z,99.90
2019-02-23T03:14:50.220Z,99.90
2019-02-23T03:17:47.322Z,99.90
2019-02-23T03:20:20.563Z,99.90
2019-02-23T03:22:53.742Z,99.90
2019-02-23T03:25:45.608Z,99.90
2019-02-23T03:28:25.030Z,99.90
2019-02-23T03:30:56.262Z,99.90
2019-02-23T03:33:27.662Z,99.90
2019-02-23T03:35:58.293Z,99.90
2019-02-23T03:38:28.573Z,99.90
2019-02-23T03:41:01.975Z,99.90
2019-02-23T03:43:32.648Z,99.90
2019-02-23T03:46:49.319Z,99.90
2019-02-23T03:49:18.154Z,99.90
2019-02-23T03:51:52.614Z,99.90
2019-02-23T03:54:57.722Z,99.90
2019-02-23T03:57:42.024Z,99.90
2019-02-23T04:00:14.150Z,99.90
2019-02-23T04:02:44.882Z,99.90
2019-02-23T04:05:18.463Z,99.90
2019-02-23T04:07:50.659Z,99.90
2019-02-23T04:10:26.665Z,99.90
2019-02-23T04:13:15.267Z,99.90
2019-02-23T04:15:51.815Z,99.90
2019-02-23T04:18:48.936Z,99.90
2019-02-23T04:23:55.803Z,99.90
2019-02-23T04:26:27.278Z,99.90
2019-02-23T04:34:28.390Z,99.90
2019-02-23T04:36:53.586Z,99.90
2019-02-23T04:39:28.703Z,99.90
2019-02-23T04:42:21.496Z,99.90
2019-02-23T04:44:56.861Z,99.90
2019-02-23T04:47:28.807Z,99.90
2019-02-23T04:50:19.687Z,99.90
2019-02-23T04:52:54.396Z,99.90
2019-02-23T04:55:44.022Z,99.90
2019-02-23T04:58:23.520Z,99.90
2019-02-23T05:01:25.116Z,99.90
2019-02-23T05:03:56.801Z,99.90
2019-02-23T05:06:49.289Z,99.90
2019-02-23T05:09:21.095Z,99.90
2019-02-23T05:11:56.017Z,99.90
2019-02-23T05:14:27.283Z,99.90
2019-02-23T05:16:57.656Z,99.90
2019-02-23T05:20:20.893Z,99.90
2019-02-23T05:22:52.001Z,99.90
2019-02-23T05:25:28.248Z,99.90
2019-02-23T05:27:58.565Z,99.90
2019-02-23T05:33:46.616Z,99.90
2019-02-23T05:36:20.278Z,99.90
2019-02-23T05:38:57.461Z,99.90
2019-02-23T05:44:29.617Z,99.90
2019-02-23T05:47:26.368Z,99.90
2019-02-23T05:50:13.792Z,99.90
2019-02-23T05:52:45.191Z,99.90
2019-02-23T05:55:20.296Z,99.90
2019-02-23T05:58:54.732Z,99.90
2019-02-23T06:00:25.781Z,99.90
2019-02-23T06:03:28.867Z,99.90
2019-02-23T06:06:16.649Z,99.90
2019-02-23T06:08:55.963Z,99.90
2019-02-23T06:17:26.214Z,99.90
2019-02-23T06:19:57.482Z,99.90
2019-02-23T06:22:28.142Z,99.90
2019-02-23T06:25:12.652Z,99.90
2019-02-23T06:27:49.687Z,99.90
2019-02-23T06:30:21.982Z,99.90
2019-02-23T06:32:58.114Z,99.90
2019-02-23T06:35:29.472Z,99.90
2019-02-23T06:37:59.599Z,99.90
2019-02-23T06:40:56.485Z,99.90
2019-02-23T06:43:48.639Z,99.90
2019-02-23T06:46:16.931Z,99.90
2019-02-23T06:49:13.237Z,99.90
2019-02-23T06:52:22.617Z,99.90
2019-02-23T06:54:58.436Z,99.90
2019-02-23T06:57:51.363Z,99.90
2019-02-23T07:00:11.634Z,99.90
2019-02-23T07:02:46.665Z,99.90
2019-02-23T07:05:28.420Z,99.90
2019-02-23T07:07:58.908Z,99.90
2019-02-23T07:10:31.270Z,99.90
2019-02-23T07:13:11.843Z,99.90
2019-02-23T07:16:17.571Z,99.90
2019-02-23T07:19:12.019Z,99.90
2019-02-23T07:24:20.894Z,99.90
2019-02-23T07:26:54.556Z,99.90
2019-02-23T07:29:26.973Z,99.90
2019-02-23T07:32:18.500Z,99.90
2019-02-23T07:34:59.734Z,99.90
2019-02-23T07:37:57.629Z,99.90
2019-02-23T07:40:40.914Z,99.90
2019-02-23T07:43:26.561Z,99.90
2019-02-23T07:45:56.997Z,99.90
2019-02-23T07:48:26.762Z,99.90
2019-02-23T07:50:56.975Z,99.90
2019-02-23T07:53:57.621Z,99.90
2019-02-23T07:56:27.510Z,99.90
2019-02-23T07:58:57.445Z,99.90
2019-02-23T08:01:27.436Z,99.90
2019-02-23T08:03:57.682Z,99.90
2019-02-23T08:06:27.648Z,99.90
2019-02-23T08:08:58.027Z,99.90
2019-02-23T08:11:28.179Z,99.90
2019-02-23T08:13:57.860Z,99.90
2019-02-23T08:16:48.022Z,99.90
2019-02-23T08:19:17.826Z,99.90
2019-02-23T08:21:47.405Z,99.90
2019-02-23T08:27:05.475Z,99.90
2019-02-23T08:29:35.510Z,99.90
2019-02-23T08:32:05.778Z,99.90
2019-02-23T08:34:35.934Z,99.90
2019-02-23T08:37:06.199Z,99.90
2019-02-23T08:39:37.248Z,99.90
2019-02-23T08:42:07.263Z,99.90
2019-02-23T08:44:37.818Z,99.90
2019-02-23T08:47:08.795Z,99.90
2019-02-23T08:49:39.298Z,99.90
2019-02-23T08:52:11.967Z,99.90
2019-02-23T08:54:45.713Z,99.90
2019-02-23T08:57:17.361Z,99.90
2019-02-23T08:59:50.584Z,99.90
2019-02-23T09:02:23.171Z,99.90
2019-02-23T09:07:47.103Z,99.90
2019-02-23T09:10:23.223Z,99.90
2019-02-23T09:12:54.751Z,99.90
2019-02-23T09:15:27.434Z,99.90
2019-02-23T09:18:04.623Z,99.90
2019-02-23T09:20:34.581Z,99.90
2019-02-23T09:23:05.416Z,99.90
2019-02-23T09:25:35.600Z,99.90
2019-02-23T09:28:06.573Z,99.90
2019-02-23T09:30:36.975Z,99.90
2019-02-23T09:33:07.343Z,99.90
2019-02-23T09:35:37.958Z,99.90
2019-02-23T09:38:07.877Z,99.90
2019-02-23T09:40:38.261Z,99.90
2019-02-23T09:43:09.318Z,99.90
2019-02-23T09:45:40.984Z,99.90
2019-02-23T09:48:11.233Z,99.90
2019-02-23T09:50:44.173Z,99.90
2019-02-23T09:53:13.260Z,99.90
2019-02-23T09:55:45.212Z,99.90
2019-02-23T09:58:18.156Z,99.90
2019-02-23T10:00:49.571Z,99.90
2019-02-23T10:03:20.522Z,99.90
2019-02-23T10:05:53.734Z,99.90
2019-02-23T10:08:26.204Z,99.90
2019-02-23T10:11:02.039Z,99.90
2019-02-23T10:13:35.550Z,99.90
2019-02-23T10:16:09.154Z,99.90
2019-02-23T10:18:39.553Z,99.90
2019-02-23T10:21:09.860Z,99.90
2019-02-23T10:23:43.158Z,99.90
2019-02-23T10:26:16.965Z,99.90
2019-02-23T10:28:47.477Z,97.60
2019-02-23T10:31:20.869Z,93.40
2019-02-23T10:33:56.138Z,86.20
2019-02-23T10:36:28.298Z,95.50
2019-02-23T10:39:01.962Z,99.90
2019-02-23T10:41:35.098Z,93.20
2019-02-23T10:44:05.074Z,91.40
2019-02-23T10:46:35.547Z,89.70
2019-02-23T10:49:08.420Z,89.20
2019-02-23T10:51:38.348Z,79.90
2019-02-23T10:54:08.611Z,93.80
2019-02-23T10:56:38.414Z,91.60
2019-02-23T10:59:08.744Z,81.50
2019-02-23T11:01:42.143Z,84.70
2019-02-23T11:04:12.332Z,90.80
2019-02-23T11:06:42.534Z,84.90
2019-02-23T11:09:20.473Z,76.40
2019-02-23T11:11:52.190Z,82.80
2019-02-23T11:14:24.891Z,78.40
2019-02-23T11:16:55.433Z,71.50
2019-02-23T11:19:26.836Z,80.80
2019-02-23T11:21:58.416Z,65.50
2019-02-23T11:24:29.356Z,78.10
2019-02-23T11:27:06.058Z,62.10
2019-02-23T11:29:37.357Z,69.70
2019-02-23T11:32:12.235Z,62.90
2019-02-23T11:34:50.129Z,70.00
2019-02-23T11:37:24.005Z,71.60
2019-02-23T11:39:58.168Z,62.70
2019-02-23T11:42:29.848Z,54.70
2019-02-23T11:45:03.225Z,54.80
2019-02-23T11:47:37.442Z,59.60
2019-02-23T11:50:09.059Z,52.30
2019-02-23T11:52:42.582Z,53.90
2019-02-23T11:55:12.999Z,60.70
2019-02-23T11:57:44.427Z,48.80
2019-02-23T12:00:19.181Z,62.20
2019-02-23T12:03:09.091Z,52.40
2019-02-23T12:05:39.173Z,53.30
2019-02-23T12:08:09.437Z,49.90
2019-02-23T12:10:40.483Z,57.30
2019-02-23T12:13:14.126Z,50.40
2019-02-23T12:15:44.515Z,59.50
2019-02-23T12:18:14.828Z,50.30
2019-02-23T12:20:48.244Z,42.20
2019-02-23T12:23:18.904Z,50.60
2019-02-23T12:25:51.438Z,47.30
2019-02-23T12:28:24.254Z,44.50
2019-02-23T12:30:54.904Z,54.60
2019-02-23T12:33:24.290Z,51.20
2019-02-23T12:35:54.329Z,52.00
2019-02-23T12:38:25.277Z,41.10
2019-02-23T12:40:56.922Z,44.00
2019-02-23T12:43:27.739Z,38.50
2019-02-23T12:46:02.030Z,45.50
2019-02-23T12:48:32.483Z,43.80
2019-02-23T12:51:04.418Z,52.10
2019-02-23T12:53:35.679Z,54.20
2019-02-23T12:56:06.459Z,38.60
2019-02-23T12:58:36.449Z,34.70
2019-02-23T13:01:09.669Z,43.20
2019-02-23T13:03:40.334Z,40.10
2019-02-23T13:06:10.735Z,39.00
2019-02-23T13:09:17.170Z,35.30
2019-02-23T13:11:55.819Z,36.80
2019-02-23T13:15:00.363Z,37.90
2019-02-23T13:18:05.696Z,39.50
2019-02-23T13:21:16.675Z,37.70
2019-02-23T13:24:36.796Z,45.60
2019-02-23T13:27:31.126Z,55.00
2019-02-23T13:30:45.206Z,38.10
2019-02-23T13:33:55.262Z,52.70
2019-02-23T13:37:04.336Z,48.90
2019-02-23T13:40:13.909Z,37.60
2019-02-23T13:43:24.212Z,34.50
2019-02-23T13:46:41.947Z,39.10
2019-02-23T13:50:14.019Z,37.80
2019-02-23T13:53:13.122Z,39.50
2019-02-23T13:56:21.136Z,47.30
2019-02-23T13:59:27.536Z,34.30
2019-02-23T14:02:35.742Z,36.40
2019-02-23T14:05:42.993Z,33.40
2019-02-23T14:09:03.219Z,33.80
2019-02-23T14:12:32.428Z,31.10
2019-02-23T14:15:32.749Z,32.60
2019-02-23T14:18:34.849Z,38.10
2019-02-23T14:21:38.799Z,39.20
2019-02-23T14:25:04.115Z,32.00
2019-02-23T14:28:12.297Z,32.10
2019-02-23T14:31:20.911Z,29.70
2019-02-23T14:34:27.753Z,36.50
2019-02-23T14:37:19.744Z,37.60
2019-02-23T14:40:30.276Z,32.40
2019-02-23T14:43:46.478Z,31.50
2019-02-23T14:46:57.037Z,43.80
2019-02-23T14:50:13.937Z,31.90
2019-02-23T14:53:24.138Z,38.00
2019-02-23T14:56:52.472Z,35.20
2019-02-23T15:00:06.608Z,40.40
2019-02-23T15:03:36.189Z,46.90
2019-02-23T15:06:35.520Z,42.70
2019-02-23T15:09:52.077Z,42.10
2019-02-23T15:12:45.742Z,46.60
2019-02-23T15:15:54.392Z,55.80
2019-02-23T15:19:05.353Z,53.20
2019-02-23T15:22:37.079Z,53.00
2019-02-23T15:26:07.127Z,38.00
2019-02-23T15:29:31.919Z,46.80
2019-02-23T15:32:27.072Z,53.90
2019-02-23T15:35:53.114Z,43.20
2019-02-23T15:39:12.946Z,35.60
2019-02-23T15:42:37.786Z,41.80
2019-02-23T15:45:46.835Z,49.40
2019-02-23T15:48:55.146Z,55.60
2019-02-23T15:51:30.668Z,59.80
2019-02-23T15:54:04.767Z,62.20
2019-02-23T15:56:40.924Z,46.40
2019-02-23T15:59:11.988Z,37.40
2019-02-23T16:01:44.802Z,36.00
2019-02-23T16:04:40.589Z,46.70
2019-02-23T16:07:11.770Z,42.50
2019-02-23T16:09:42.460Z,49.50
2019-02-23T16:15:08.485Z,55.00
2019-02-23T16:18:07.898Z,51.60
2019-02-23T16:20:47.221Z,51.60
2019-02-23T16:23:44.729Z,46.20
2019-02-23T16:26:17.340Z,41.60
2019-02-23T16:28:47.266Z,48.90
2019-02-23T16:31:17.617Z,43.70
2019-02-23T16:33:54.638Z,43.20
2019-02-23T16:36:25.841Z,53.10
2019-02-23T16:38:57.358Z,44.70
2019-02-23T16:41:38.916Z,44.70
2019-02-23T16:44:13.158Z,46.60
2019-02-23T16:46:46.412Z,51.40
2019-02-23T16:49:19.413Z,52.20
2019-02-23T16:51:50.846Z,55.50
2019-02-23T16:54:30.014Z,48.70
2019-02-23T16:57:07.699Z,61.50
2019-02-23T16:59:42.321Z,57.20
2019-02-23T17:02:14.982Z,69.00
2019-02-23T17:04:53.163Z,68.30
2019-02-23T17:07:26.387Z,78.10
2019-02-23T17:09:56.481Z,71.20
2019-02-23T17:15:29.658Z,69.30
2019-02-23T17:18:03.010Z,66.20
2019-02-23T17:20:35.023Z,57.20
2019-02-23T17:23:09.932Z,56.40
2019-02-23T17:25:41.767Z,70.70
2019-02-23T17:29:00.115Z,64.60
2019-02-23T17:34:43.741Z,73.10
2019-02-23T17:37:14.215Z,72.40
2019-02-23T17:39:47.340Z,81.20
2019-02-23T17:42:27.698Z,74.60
2019-02-23T17:45:43.975Z,77.20
2019-02-23T17:47:56.165Z,68.10
2019-02-23T17:50:28.022Z,66.80
2019-02-23T17:53:05.306Z,84.00
2019-02-23T17:55:36.862Z,54.00
2019-02-23T17:58:11.317Z,60.40
2019-02-23T18:03:38.211Z,61.50
2019-02-23T18:06:11.914Z,79.40
2019-02-23T18:08:45.380Z,89.00
2019-02-23T18:11:15.713Z,82.20
2019-02-23T18:13:45.582Z,79.30
2019-02-23T18:16:15.691Z,78.70
2019-02-23T18:18:46.538Z,89.00
2019-02-23T18:21:17.630Z,67.70
2019-02-23T18:23:59.436Z,64.40
2019-02-23T18:29:33.550Z,88.30
2019-02-23T18:32:03.777Z,69.20
2019-02-23T18:34:36.002Z,86.70
2019-02-23T18:37:09.341Z,88.00
2019-02-23T18:39:45.086Z,76.10
2019-02-23T18:42:15.608Z,69.80
2019-02-23T18:44:49.852Z,76.40
2019-02-23T18:50:50.747Z,84.20
2019-02-23T18:53:17.264Z,90.40
2019-02-23T18:55:47.902Z,87.60
2019-02-23T18:58:30.104Z,86.00
2019-02-23T19:03:49.480Z,71.50
2019-02-23T19:05:30.854Z,57.20
2019-02-23T19:08:23.499Z,60.50
2019-02-23T19:11:26.065Z,75.00
2019-02-23T19:14:00.561Z,82.50
2019-02-23T19:16:50.172Z,88.10
2019-02-23T19:19:20.430Z,71.20
2019-02-23T19:22:14.109Z,82.80
2019-02-23T19:24:51.717Z,75.70
2019-02-23T19:27:31.547Z,84.00
2019-02-23T19:30:20.863Z,77.40
2019-02-23T19:33:42.759Z,80.30
2019-02-23T19:36:10.260Z,69.00
2019-02-23T19:38:46.443Z,64.90
2019-02-23T19:41:18.339Z,59.90
2019-02-23T19:44:07.155Z,53.10
2019-02-23T19:46:46.206Z,55.20
2019-02-23T19:50:18.217Z,53.20
2019-02-23T19:53:03.036Z,52.70
2019-02-23T19:56:09.589Z,52.70
2019-02-23T19:59:15.109Z,53.60
2019-02-23T20:01:34.036Z,58.60
2019-02-23T20:04:19.421Z,72.80
2019-02-23T20:06:50.231Z,59.70
2019-02-23T20:09:44.425Z,60.90
2019-02-23T20:12:18.628Z,76.90
2019-02-23T20:14:52.288Z,57.70
2019-02-23T20:17:22.536Z,67.90
2019-02-23T20:19:52.795Z,86.30
2019-02-23T20:22:27.876Z,80.60
2019-02-23T20:25:04.452Z,81.20
2019-02-23T20:27:40.186Z,70.30
2019-02-23T20:30:22.655Z,54.70
2019-02-23T20:32:52.646Z,62.10
2019-02-23T20:36:17.755Z,72.00
2019-02-23T20:39:17.709Z,76.80
2019-02-23T20:41:22.727Z,83.40
2019-02-23T20:44:21.772Z,81.40
2019-02-23T20:46:50.396Z,70.70
2019-02-23T20:49:28.352Z,70.10
2019-02-23T20:52:03.083Z,66.30
2019-02-23T20:57:43.158Z,71.40
2019-02-23T21:00:17.768Z,74.80
2019-02-23T21:02:54.297Z,68.80
2019-02-23T21:05:25.067Z,78.90
2019-02-23T21:07:58.233Z,83.40
2019-02-23T21:10:55.900Z,80.90
2019-02-23T21:13:42.111Z,90.00
2019-02-23T21:16:19.989Z,89.30
2019-02-23T21:18:55.473Z,88.40
2019-02-23T21:21:30.587Z,77.00
2019-02-23T21:24:24.970Z,72.20
2019-02-23T21:27:12.874Z,83.70
2019-02-23T21:29:48.047Z,57.20
2019-02-23T21:32:49.184Z,73.50
2019-02-23T21:38:51.884Z,83.70
2019-02-23T21:41:52.487Z,82.70
2019-02-23T21:44:50.565Z,79.00
2019-02-23T21:47:21.235Z,73.10
2019-02-23T21:49:53.003Z,61.30
2019-02-23T21:52:34.986Z,69.20
2019-02-23T21:55:23.664Z,71.20
2019-02-23T22:01:16.624Z,62.60
2019-02-23T22:03:52.343Z,70.90
2019-02-23T22:06:22.407Z,61.90
2019-02-23T22:08:56.799Z,62.40
2019-02-23T22:11:28.182Z,58.00
2019-02-23T22:14:05.205Z,81.20
2019-02-23T22:16:45.706Z,70.00
2019-02-23T22:20:27.676Z,77.70
2019-02-23T22:23:02.689Z,81.70
2019-02-23T22:29:11.905Z,83.10
2019-02-23T22:31:45.184Z,89.40
2019-02-23T22:34:20.898Z,78.60
2019-02-23T22:37:18.090Z,69.90
2019-02-23T22:39:59.794Z,81.50
2019-02-23T22:43:25.068Z,71.60
2019-02-23T22:46:03.297Z,69.00
2019-02-23T22:48:40.878Z,61.00
2019-02-23T22:51:16.804Z,56.00
2019-02-23T22:53:49.391Z,67.00
2019-02-23T22:56:22.324Z,57.30
2019-02-23T23:02:53.760Z,58.20
2019-02-23T23:05:24.084Z,81.80
2019-02-23T23:07:56.151Z,83.00
2019-02-23T23:10:30.628Z,57.00
2019-02-23T23:13:07.618Z,60.20
2019-02-23T23:15:47.823Z,66.40
2019-02-23T23:18:27.622Z,71.60
2019-02-23T23:20:56.682Z,72.30
2019-02-23T23:23:28.167Z,70.30
2019-02-23T23:25:58.826Z,72.50
2019-02-23T23:28:35.248Z,71.30
2019-02-23T23:31:21.033Z,76.70
2019-02-23T23:34:08.492Z,64.80
2019-02-23T23:36:54.569Z,80.10
2019-02-23T23:39:29.220Z,86.30
2019-02-23T23:42:03.449Z,83.00
2019-02-23T23:44:40.010Z,81.70
2019-02-23T23:47:16.088Z,68.20
2019-02-23T23:49:54.796Z,69.20
2019-02-23T23:52:28.120Z,80.80
2019-02-23T23:54:58.011Z,84.20
2019-02-23T23:57:30.539Z,70.30
